SIA378 WSSS-LIMC
Flight info
| Callsign | SIA378 |
|---|---|
| Flight time | N/A |
| Altitude | 34000 |
| Route | AROSO3A AROSO Y513 KALIL Y501 RINBA Y503 VPL P628 VATLA/N0501F360 P628 RK/N0495F380 G202 ZB/N0494F370 G325 LAKRA/N0491F380 M881 LAJAK L509 TAPIS M875 AMDAR/K0909F380 M875 INDUD Z777 MANAT/N0487F380 B376 LBA A118 ABDAN B114 BUROT G775 DOLOS B449 ETRAP B447 KRS/N0487F400 B143 TUNEK A909 RODAR M11 REBLO UM11 CRM UL746 ODERO DCT LUGEB DCT MOPUG DCT DIMLO DCT VAMET DCT DETSA/N0481F410 DCT BAKOR DCT NAXAV DCT RENTA DCT ATPED DCT LUSIL DCT EVRIP |
| Aircraft | A359/H-SDE2E3GHIJ3J4J5LM1ORWXY/LB1D1 |
Departure
| Time | N/A |
|---|---|
| Airport | Singapore Changi Airport (WSSS) |
Arrival
| Time | 2026-05-03 22:27 |
|---|---|
| Airport | Milan Malpensa International Airport (LIMC) |
| Time | Latitude | Longitude | Altitude | Speed | Heading |
|---|---|---|---|---|---|
| 2026-05-03 20:15 | 42.59905 | 30.33124 | 42013 ft | 523 kts | 285° |
| 2026-05-03 20:15 | 42.62892 | 30.24222 | 42015 ft | 526 kts | 302° |
| 2026-05-03 20:16 | 42.67480 | 30.16480 | 42018 ft | 526 kts | 310° |
| 2026-05-03 20:16 | 42.72374 | 30.09035 | 42029 ft | 530 kts | 311° |
| 2026-05-03 20:17 | 42.77324 | 30.01572 | 42032 ft | 531 kts | 311° |
| 2026-05-03 20:17 | 42.82232 | 29.94087 | 42043 ft | 526 kts | 311° |
| 2026-05-03 20:18 | 42.87070 | 29.86647 | 42042 ft | 524 kts | 310° |
| 2026-05-03 20:18 | 42.91876 | 29.79225 | 42037 ft | 521 kts | 311° |
| 2026-05-03 20:19 | 42.96674 | 29.71791 | 42053 ft | 522 kts | 311° |
| 2026-05-03 20:19 | 43.01477 | 29.64338 | 42055 ft | 521 kts | 311° |
| 2026-05-03 20:20 | 43.06215 | 29.56969 | 42053 ft | 519 kts | 311° |
| 2026-05-03 20:20 | 43.10983 | 29.49534 | 42057 ft | 519 kts | 311° |
| 2026-05-03 20:21 | 43.15732 | 29.42109 | 42062 ft | 518 kts | 311° |
| 2026-05-03 20:21 | 43.20471 | 29.34681 | 42069 ft | 518 kts | 310° |
| 2026-05-03 20:22 | 43.25228 | 29.27202 | 42075 ft | 522 kts | 311° |
| 2026-05-03 20:22 | 43.29981 | 29.19714 | 42072 ft | 518 kts | 311° |
| 2026-05-03 20:23 | 43.34710 | 29.12244 | 42084 ft | 519 kts | 311° |
| 2026-05-03 20:23 | 43.39445 | 29.04745 | 42087 ft | 520 kts | 311° |
| 2026-05-03 20:24 | 43.44159 | 28.97258 | 42088 ft | 521 kts | 311° |
| 2026-05-03 20:24 | 43.48909 | 28.89696 | 42091 ft | 521 kts | 311° |
| 2026-05-03 20:25 | 43.53632 | 28.82156 | 42098 ft | 519 kts | 311° |
| 2026-05-03 20:25 | 43.58322 | 28.74651 | 42353 ft | 513 kts | 311° |
| 2026-05-03 20:25 | 43.60632 | 28.70945 | 42706 ft | 509 kts | 311° |
| 2026-05-03 20:26 | 43.62944 | 28.67235 | 42784 ft | 510 kts | 311° |
| 2026-05-03 20:26 | 43.67576 | 28.59785 | 42888 ft | 512 kts | 311° |
| 2026-05-03 20:27 | 43.72178 | 28.52265 | 42988 ft | 513 kts | 307° |
| 2026-05-03 20:27 | 43.75838 | 28.43808 | 43010 ft | 514 kts | 298° |
| 2026-05-03 20:28 | 43.79070 | 28.34960 | 43017 ft | 515 kts | 296° |
| 2026-05-03 20:28 | 43.82221 | 28.26052 | 43017 ft | 516 kts | 296° |
| 2026-05-03 20:29 | 43.85371 | 28.17138 | 43114 ft | 514 kts | 296° |
| 2026-05-03 20:29 | 43.88496 | 28.08318 | 43124 ft | 513 kts | 296° |
| 2026-05-03 20:30 | 43.91643 | 27.99428 | 43132 ft | 514 kts | 296° |
| 2026-05-03 20:30 | 43.94786 | 27.90524 | 43132 ft | 514 kts | 296° |
| 2026-05-03 20:31 | 43.97924 | 27.81604 | 43133 ft | 514 kts | 296° |
| 2026-05-03 20:31 | 44.01051 | 27.72683 | 43137 ft | 514 kts | 296° |
| 2026-05-03 20:32 | 44.04174 | 27.63742 | 43138 ft | 513 kts | 296° |
| 2026-05-03 20:32 | 44.07282 | 27.54815 | 43140 ft | 513 kts | 296° |
| 2026-05-03 20:33 | 44.10386 | 27.45872 | 43141 ft | 513 kts | 296° |
| 2026-05-03 20:33 | 44.13481 | 27.36926 | 43140 ft | 513 kts | 296° |
| 2026-05-03 20:34 | 44.16569 | 27.27967 | 43140 ft | 513 kts | 296° |
| 2026-05-03 20:34 | 44.19630 | 27.19060 | 43140 ft | 513 kts | 296° |
| 2026-05-03 20:35 | 44.22702 | 27.10093 | 43143 ft | 513 kts | 296° |
| 2026-05-03 20:35 | 44.25768 | 27.01111 | 43142 ft | 513 kts | 296° |
| 2026-05-03 20:36 | 44.28832 | 26.92105 | 43143 ft | 513 kts | 296° |
| 2026-05-03 20:36 | 44.31890 | 26.83088 | 43143 ft | 513 kts | 296° |
| 2026-05-03 20:37 | 44.34938 | 26.74067 | 43147 ft | 513 kts | 296° |
| 2026-05-03 20:37 | 44.37466 | 26.66563 | 43147 ft | 513 kts | 296° |
| 2026-05-03 20:38 | 44.40501 | 26.57530 | 43155 ft | 513 kts | 296° |
| 2026-05-03 20:38 | 44.43529 | 26.48483 | 43158 ft | 513 kts | 296° |
| 2026-05-03 20:39 | 44.46550 | 26.39426 | 43162 ft | 513 kts | 296° |
| 2026-05-03 20:39 | 44.49560 | 26.30370 | 43162 ft | 513 kts | 296° |
| 2026-05-03 20:40 | 44.52565 | 26.21302 | 43157 ft | 513 kts | 296° |
| 2026-05-03 20:40 | 44.55563 | 26.12225 | 43156 ft | 513 kts | 296° |
| 2026-05-03 20:41 | 44.58553 | 26.03138 | 43158 ft | 513 kts | 296° |
| 2026-05-03 20:41 | 44.61538 | 25.94034 | 43158 ft | 513 kts | 296° |
| 2026-05-03 20:42 | 44.64515 | 25.84927 | 43156 ft | 513 kts | 296° |
| 2026-05-03 20:42 | 44.67466 | 25.75863 | 43151 ft | 513 kts | 296° |
| 2026-05-03 20:43 | 44.70420 | 25.66762 | 43163 ft | 511 kts | 296° |
| 2026-05-03 20:43 | 44.73360 | 25.57671 | 43173 ft | 511 kts | 296° |
| 2026-05-03 20:44 | 44.76292 | 25.48577 | 43181 ft | 511 kts | 296° |
| 2026-05-03 20:44 | 44.79217 | 25.39468 | 43187 ft | 510 kts | 296° |
| 2026-05-03 20:45 | 44.82132 | 25.30358 | 43187 ft | 510 kts | 296° |
| 2026-05-03 20:45 | 44.85038 | 25.21248 | 43197 ft | 510 kts | 296° |
| 2026-05-03 20:46 | 44.87937 | 25.12127 | 43189 ft | 510 kts | 296° |
| 2026-05-03 20:46 | 44.90833 | 25.02986 | 43197 ft | 511 kts | 296° |
| 2026-05-03 20:47 | 44.93725 | 24.93820 | 43206 ft | 511 kts | 296° |
| 2026-05-03 20:47 | 44.96609 | 24.84652 | 43214 ft | 511 kts | 296° |
| 2026-05-03 20:48 | 44.99488 | 24.75465 | 43213 ft | 511 kts | 296° |
| 2026-05-03 20:48 | 45.02359 | 24.66270 | 43223 ft | 511 kts | 295° |
| 2026-05-03 20:49 | 45.05201 | 24.57136 | 43232 ft | 511 kts | 295° |
| 2026-05-03 20:49 | 45.08059 | 24.47916 | 43228 ft | 511 kts | 295° |
| 2026-05-03 20:50 | 45.10891 | 24.38746 | 43243 ft | 507 kts | 295° |
| 2026-05-03 20:50 | 45.13701 | 24.29616 | 43248 ft | 505 kts | 295° |
| 2026-05-03 20:51 | 45.16498 | 24.20499 | 43245 ft | 505 kts | 295° |
| 2026-05-03 20:51 | 45.19286 | 24.11371 | 43237 ft | 503 kts | 295° |
| 2026-05-03 20:52 | 45.22058 | 24.02263 | 43224 ft | 503 kts | 295° |
| 2026-05-03 20:52 | 45.24826 | 23.93144 | 43220 ft | 503 kts | 296° |
| 2026-05-03 20:53 | 45.27587 | 23.84014 | 43214 ft | 503 kts | 295° |
| 2026-05-03 20:53 | 45.30337 | 23.74891 | 43205 ft | 501 kts | 296° |
| 2026-05-03 20:54 | 45.33048 | 23.65859 | 43201 ft | 500 kts | 295° |
| 2026-05-03 20:54 | 45.37123 | 23.52223 | 43189 ft | 499 kts | 295° |
| 2026-05-03 20:55 | 45.39831 | 23.43126 | 43188 ft | 499 kts | 296° |
| 2026-05-03 20:55 | 45.42531 | 23.34020 | 43188 ft | 500 kts | 295° |
| 2026-05-03 20:56 | 45.45222 | 23.24899 | 43191 ft | 500 kts | 295° |
| 2026-05-03 20:56 | 45.47906 | 23.15779 | 43188 ft | 499 kts | 295° |
| 2026-05-03 20:57 | 45.50589 | 23.06633 | 43194 ft | 501 kts | 295° |
| 2026-05-03 20:57 | 45.53268 | 22.97457 | 43190 ft | 502 kts | 295° |
| 2026-05-03 20:58 | 45.55942 | 22.88266 | 43194 ft | 502 kts | 295° |
| 2026-05-03 20:58 | 45.58614 | 22.79050 | 43185 ft | 502 kts | 294° |
| 2026-05-03 20:59 | 45.61289 | 22.69792 | 43189 ft | 506 kts | 294° |
| 2026-05-03 20:59 | 45.63967 | 22.60487 | 43187 ft | 507 kts | 294° |
| 2026-05-03 21:00 | 45.66188 | 22.52740 | 43189 ft | 507 kts | 294° |
| 2026-05-03 21:00 | 45.69286 | 22.41892 | 43181 ft | 506 kts | 294° |
| 2026-05-03 21:01 | 45.71930 | 22.32599 | 43181 ft | 504 kts | 294° |
| 2026-05-03 21:01 | 45.74565 | 22.23301 | 43181 ft | 504 kts | 294° |
| 2026-05-03 21:02 | 45.77192 | 22.13999 | 43176 ft | 504 kts | 294° |
| 2026-05-03 21:02 | 45.79811 | 22.04688 | 43177 ft | 503 kts | 294° |
| 2026-05-03 21:03 | 45.82417 | 21.95388 | 43180 ft | 502 kts | 294° |
| 2026-05-03 21:03 | 45.85014 | 21.86087 | 43174 ft | 502 kts | 294° |
| 2026-05-03 21:04 | 45.87603 | 21.76775 | 43160 ft | 502 kts | 294° |
| 2026-05-03 21:04 | 45.90178 | 21.67480 | 43166 ft | 501 kts | 294° |
| 2026-05-03 21:05 | 45.92742 | 21.58187 | 43152 ft | 500 kts | 294° |
| 2026-05-03 21:05 | 45.95292 | 21.48908 | 43161 ft | 500 kts | 294° |
| 2026-05-03 21:06 | 45.97845 | 21.39586 | 43153 ft | 499 kts | 294° |
| 2026-05-03 21:06 | 46.00378 | 21.30299 | 43159 ft | 499 kts | 294° |
| 2026-05-03 21:07 | 46.02902 | 21.21008 | 43157 ft | 498 kts | 294° |
| 2026-05-03 21:07 | 46.05399 | 21.11782 | 43152 ft | 498 kts | 293° |
| 2026-05-03 21:08 | 46.07909 | 21.02470 | 43155 ft | 497 kts | 293° |
| 2026-05-03 21:08 | 46.10402 | 20.93186 | 43158 ft | 497 kts | 293° |
| 2026-05-03 21:09 | 46.12887 | 20.83895 | 43156 ft | 497 kts | 293° |
| 2026-05-03 21:09 | 46.15365 | 20.74589 | 43163 ft | 497 kts | 293° |
| 2026-05-03 21:10 | 46.17185 | 20.64965 | 43162 ft | 498 kts | 285° |
| 2026-05-03 21:10 | 46.18604 | 20.55191 | 43161 ft | 498 kts | 283° |
| 2026-05-03 21:11 | 46.19949 | 20.45396 | 43160 ft | 498 kts | 283° |
| 2026-05-03 21:11 | 46.21289 | 20.35597 | 43165 ft | 498 kts | 283° |
| 2026-05-03 21:12 | 46.22630 | 20.25805 | 43165 ft | 496 kts | 283° |
| 2026-05-03 21:12 | 46.23965 | 20.16027 | 43168 ft | 496 kts | 283° |
| 2026-05-03 21:13 | 46.25293 | 20.06248 | 43164 ft | 496 kts | 283° |
| 2026-05-03 21:13 | 46.26603 | 19.96531 | 43165 ft | 496 kts | 283° |
| 2026-05-03 21:14 | 46.27920 | 19.86687 | 43160 ft | 496 kts | 283° |
| 2026-05-03 21:14 | 46.29213 | 19.76963 | 43160 ft | 496 kts | 283° |
| 2026-05-03 21:15 | 46.30507 | 19.67160 | 43162 ft | 496 kts | 283° |
| 2026-05-03 21:15 | 46.31791 | 19.57361 | 43147 ft | 496 kts | 283° |
| 2026-05-03 21:16 | 46.33065 | 19.47570 | 43163 ft | 495 kts | 283° |
| 2026-05-03 21:16 | 46.34329 | 19.37790 | 43159 ft | 494 kts | 283° |
| 2026-05-03 21:17 | 46.35372 | 19.29670 | 43156 ft | 494 kts | 283° |
| 2026-05-03 21:17 | 46.36829 | 19.18246 | 43138 ft | 494 kts | 283° |
| 2026-05-03 21:18 | 46.38068 | 19.08460 | 43162 ft | 494 kts | 283° |
| 2026-05-03 21:18 | 46.39296 | 18.98679 | 43151 ft | 494 kts | 283° |
| 2026-05-03 21:19 | 46.40517 | 18.88888 | 43160 ft | 494 kts | 282° |
| 2026-05-03 21:19 | 46.41730 | 18.79091 | 43125 ft | 494 kts | 282° |
| 2026-05-03 21:20 | 46.42933 | 18.69303 | 43146 ft | 493 kts | 282° |
| 2026-05-03 21:20 | 46.44128 | 18.59504 | 43141 ft | 493 kts | 282° |
| 2026-05-03 21:21 | 46.45313 | 18.49712 | 43144 ft | 493 kts | 282° |
| 2026-05-03 21:21 | 46.46483 | 18.39978 | 43119 ft | 493 kts | 282° |
| 2026-05-03 21:22 | 46.47652 | 18.30184 | 43128 ft | 492 kts | 282° |
| 2026-05-03 21:22 | 46.48810 | 18.20396 | 43130 ft | 492 kts | 282° |
| 2026-05-03 21:23 | 46.49968 | 18.10537 | 43129 ft | 492 kts | 282° |
| 2026-05-03 21:23 | 46.51102 | 18.00808 | 43111 ft | 492 kts | 281° |
| 2026-05-03 21:24 | 46.52234 | 17.91019 | 43123 ft | 491 kts | 281° |
| 2026-05-03 21:24 | 46.53357 | 17.81237 | 43120 ft | 491 kts | 281° |
| 2026-05-03 21:25 | 46.54472 | 17.71443 | 43118 ft | 491 kts | 281° |
| 2026-05-03 21:25 | 46.55577 | 17.61656 | 43105 ft | 491 kts | 281° |
| 2026-05-03 21:26 | 46.56490 | 17.53521 | 43119 ft | 490 kts | 281° |
| 2026-05-03 21:26 | 46.57577 | 17.43748 | 43119 ft | 490 kts | 281° |
| 2026-05-03 21:27 | 46.58832 | 17.32377 | 43123 ft | 490 kts | 281° |
| 2026-05-03 21:27 | 46.59902 | 17.22592 | 43129 ft | 490 kts | 281° |
| 2026-05-03 21:28 | 46.60793 | 17.14392 | 43130 ft | 489 kts | 280° |
| 2026-05-03 21:28 | 46.61845 | 17.04627 | 43128 ft | 489 kts | 280° |
| 2026-05-03 21:29 | 46.62881 | 16.94922 | 43123 ft | 489 kts | 280° |
| 2026-05-03 21:29 | 46.63917 | 16.85152 | 43097 ft | 489 kts | 280° |
| 2026-05-03 21:30 | 46.64943 | 16.75380 | 43100 ft | 488 kts | 280° |
| 2026-05-03 21:30 | 46.65960 | 16.65621 | 43100 ft | 488 kts | 280° |
| 2026-05-03 21:31 | 46.66969 | 16.55852 | 43094 ft | 488 kts | 279° |
| 2026-05-03 21:31 | 46.67969 | 16.46082 | 43094 ft | 488 kts | 279° |
| 2026-05-03 21:32 | 46.68930 | 16.36309 | 43091 ft | 487 kts | 278° |
| 2026-05-03 21:32 | 46.69747 | 16.26525 | 43091 ft | 486 kts | 278° |
| 2026-05-03 21:33 | 46.70537 | 16.16736 | 43091 ft | 486 kts | 278° |
| 2026-05-03 21:33 | 46.71339 | 16.06951 | 43088 ft | 486 kts | 278° |
| 2026-05-03 21:34 | 46.72144 | 15.97166 | 43086 ft | 486 kts | 278° |
| 2026-05-03 21:34 | 46.72944 | 15.87376 | 43090 ft | 486 kts | 278° |
| 2026-05-03 21:35 | 46.73730 | 15.77654 | 43092 ft | 486 kts | 278° |
| 2026-05-03 21:35 | 46.74513 | 15.67846 | 43091 ft | 486 kts | 278° |
| 2026-05-03 21:36 | 46.75286 | 15.58055 | 43080 ft | 486 kts | 277° |
| 2026-05-03 21:36 | 46.76048 | 15.48289 | 43080 ft | 485 kts | 277° |
| 2026-05-03 21:37 | 46.76802 | 15.38518 | 43083 ft | 484 kts | 277° |
| 2026-05-03 21:37 | 46.77544 | 15.28750 | 43083 ft | 484 kts | 277° |
| 2026-05-03 21:38 | 46.77867 | 15.18925 | 43086 ft | 485 kts | 272° |
| 2026-05-03 21:38 | 46.77947 | 15.09165 | 43088 ft | 484 kts | 272° |
| 2026-05-03 21:39 | 46.78069 | 14.99362 | 43088 ft | 483 kts | 272° |
| 2026-05-03 21:39 | 46.78242 | 14.89563 | 43091 ft | 483 kts | 272° |
| 2026-05-03 21:40 | 46.78429 | 14.79761 | 43078 ft | 483 kts | 272° |
| 2026-05-03 21:40 | 46.78608 | 14.69969 | 43082 ft | 483 kts | 272° |
| 2026-05-03 21:41 | 46.78775 | 14.60182 | 43077 ft | 482 kts | 272° |
| 2026-05-03 21:41 | 46.78932 | 14.50390 | 43076 ft | 482 kts | 272° |
| 2026-05-03 21:42 | 46.79081 | 14.40605 | 43075 ft | 482 kts | 272° |
| 2026-05-03 21:42 | 46.79222 | 14.30832 | 43076 ft | 482 kts | 272° |
| 2026-05-03 21:43 | 46.79354 | 14.21037 | 43076 ft | 482 kts | 272° |
| 2026-05-03 21:43 | 46.79477 | 14.11326 | 43077 ft | 482 kts | 271° |
| 2026-05-03 21:44 | 46.79592 | 14.01544 | 43079 ft | 482 kts | 271° |
| 2026-05-03 21:44 | 46.79699 | 13.91761 | 43089 ft | 482 kts | 271° |
| 2026-05-03 21:45 | 46.79798 | 13.81980 | 43086 ft | 482 kts | 271° |
| 2026-05-03 21:45 | 46.79889 | 13.72189 | 43093 ft | 482 kts | 271° |
| 2026-05-03 21:46 | 46.79971 | 13.62410 | 43100 ft | 482 kts | 271° |
| 2026-05-03 21:46 | 46.80045 | 13.52632 | 43099 ft | 482 kts | 271° |
| 2026-05-03 21:47 | 46.80110 | 13.42847 | 43092 ft | 482 kts | 271° |
| 2026-05-03 21:47 | 46.80166 | 13.33305 | 43100 ft | 481 kts | 271° |
| 2026-05-03 21:48 | 46.80215 | 13.23610 | 43104 ft | 481 kts | 271° |
| 2026-05-03 21:48 | 46.80255 | 13.13862 | 43106 ft | 480 kts | 271° |
| 2026-05-03 21:49 | 46.80287 | 13.04167 | 43108 ft | 479 kts | 271° |
| 2026-05-03 21:49 | 46.80311 | 12.94435 | 43105 ft | 479 kts | 270° |
| 2026-05-03 21:50 | 46.80327 | 12.84707 | 43106 ft | 479 kts | 270° |
| 2026-05-03 21:50 | 46.80333 | 12.74977 | 43107 ft | 480 kts | 270° |
| 2026-05-03 21:51 | 46.80336 | 12.65248 | 43123 ft | 479 kts | 270° |
| 2026-05-03 21:51 | 46.80326 | 12.55538 | 43137 ft | 478 kts | 270° |
| 2026-05-03 21:52 | 46.80308 | 12.45851 | 43159 ft | 477 kts | 270° |
| 2026-05-03 21:52 | 46.80279 | 12.36168 | 43173 ft | 477 kts | 269° |
| 2026-05-03 21:53 | 46.79308 | 12.26609 | 43187 ft | 477 kts | 253° |
| 2026-05-03 21:53 | 46.76717 | 12.17701 | 43093 ft | 478 kts | 245° |
| 2026-05-03 21:54 | 46.73710 | 12.09063 | 43091 ft | 478 kts | 244° |
| 2026-05-03 21:54 | 46.70641 | 12.00463 | 43096 ft | 478 kts | 244° |
| 2026-05-03 21:55 | 46.67586 | 11.91844 | 43108 ft | 479 kts | 244° |
| 2026-05-03 21:55 | 46.64547 | 11.83224 | 43100 ft | 478 kts | 244° |
| 2026-05-03 21:56 | 46.61509 | 11.74619 | 43098 ft | 479 kts | 244° |
| 2026-05-03 21:56 | 46.58465 | 11.66013 | 43094 ft | 478 kts | 244° |
| 2026-05-03 21:57 | 46.55413 | 11.57432 | 43081 ft | 477 kts | 244° |
| 2026-05-03 21:57 | 46.52383 | 11.48945 | 43083 ft | 476 kts | 244° |
| 2026-05-03 21:58 | 46.49333 | 11.40425 | 43076 ft | 476 kts | 244° |
| 2026-05-03 21:58 | 46.46269 | 11.31891 | 43076 ft | 476 kts | 244° |
| 2026-05-03 21:59 | 46.43285 | 11.23334 | 43148 ft | 476 kts | 245° |
| 2026-05-03 21:59 | 46.40356 | 11.14731 | 43239 ft | 476 kts | 245° |
| 2026-05-03 22:00 | 46.37419 | 11.06156 | 43239 ft | 475 kts | 245° |
| 2026-05-03 22:00 | 46.34483 | 10.97660 | 43014 ft | 465 kts | 245° |
| 2026-05-03 22:01 | 46.33058 | 10.93557 | 42732 ft | 461 kts | 244° |
| 2026-05-03 22:01 | 46.31619 | 10.89417 | 42454 ft | 460 kts | 244° |
| 2026-05-03 22:01 | 46.30180 | 10.85284 | 42193 ft | 460 kts | 245° |
| 2026-05-03 22:01 | 46.28747 | 10.81148 | 41918 ft | 460 kts | 245° |
| 2026-05-03 22:02 | 46.27333 | 10.77075 | 41651 ft | 459 kts | 245° |
| 2026-05-03 22:02 | 46.25898 | 10.72954 | 41416 ft | 459 kts | 245° |
| 2026-05-03 22:02 | 46.24466 | 10.68846 | 40929 ft | 456 kts | 244° |
| 2026-05-03 22:02 | 46.23037 | 10.64753 | 40155 ft | 457 kts | 245° |
| 2026-05-03 22:03 | 46.21602 | 10.60648 | 39395 ft | 458 kts | 245° |
| 2026-05-03 22:03 | 46.20166 | 10.56546 | 38636 ft | 457 kts | 245° |
| 2026-05-03 22:03 | 46.18731 | 10.52458 | 37751 ft | 457 kts | 244° |
| 2026-05-03 22:03 | 46.17296 | 10.48368 | 36926 ft | 456 kts | 244° |
| 2026-05-03 22:04 | 46.15866 | 10.44301 | 36231 ft | 453 kts | 244° |
| 2026-05-03 22:04 | 46.14443 | 10.40254 | 35601 ft | 450 kts | 244° |
| 2026-05-03 22:04 | 46.13029 | 10.36237 | 34923 ft | 449 kts | 244° |
| 2026-05-03 22:04 | 46.11613 | 10.32233 | 34191 ft | 448 kts | 243° |
| 2026-05-03 22:05 | 46.10217 | 10.28291 | 33337 ft | 448 kts | 243° |
| 2026-05-03 22:05 | 46.08802 | 10.24304 | 32561 ft | 445 kts | 243° |
| 2026-05-03 22:05 | 46.07393 | 10.20341 | 31755 ft | 444 kts | 243° |
| 2026-05-03 22:05 | 46.05982 | 10.16379 | 30938 ft | 445 kts | 243° |
| 2026-05-03 22:06 | 46.04570 | 10.12414 | 30067 ft | 446 kts | 242° |
| 2026-05-03 22:06 | 46.03176 | 10.08426 | 29235 ft | 445 kts | 244° |
| 2026-05-03 22:06 | 46.01841 | 10.04426 | 28586 ft | 443 kts | 244° |
| 2026-05-03 22:06 | 46.00516 | 10.00445 | 27970 ft | 439 kts | 244° |
| 2026-05-03 22:07 | 45.99196 | 9.96501 | 27345 ft | 435 kts | 244° |
| 2026-05-03 22:07 | 45.97883 | 9.92594 | 26738 ft | 432 kts | 244° |
| 2026-05-03 22:07 | 45.96608 | 9.88809 | 26132 ft | 428 kts | 244° |
| 2026-05-03 22:07 | 45.95312 | 9.84975 | 25528 ft | 425 kts | 244° |
| 2026-05-03 22:08 | 45.94029 | 9.81184 | 24927 ft | 421 kts | 244° |
| 2026-05-03 22:08 | 45.92750 | 9.77414 | 24340 ft | 418 kts | 245° |
| 2026-05-03 22:08 | 45.91480 | 9.73674 | 23750 ft | 415 kts | 245° |
| 2026-05-03 22:08 | 45.90220 | 9.69967 | 23079 ft | 411 kts | 245° |
| 2026-05-03 22:09 | 45.88969 | 9.66294 | 22484 ft | 408 kts | 245° |
| 2026-05-03 22:09 | 45.87728 | 9.62652 | 21886 ft | 405 kts | 245° |
| 2026-05-03 22:09 | 45.86495 | 9.59041 | 21309 ft | 401 kts | 244° |
| 2026-05-03 22:10 | 45.84002 | 9.51945 | 20165 ft | 396 kts | 242° |
| 2026-05-03 22:10 | 45.82660 | 9.48512 | 19583 ft | 393 kts | 241° |
| 2026-05-03 22:10 | 45.81327 | 9.45110 | 18981 ft | 390 kts | 240° |
| 2026-05-03 22:10 | 45.80012 | 9.41740 | 18392 ft | 386 kts | 240° |
| 2026-05-03 22:11 | 45.78707 | 9.38390 | 17759 ft | 382 kts | 240° |
| 2026-05-03 22:11 | 45.77423 | 9.35085 | 17169 ft | 378 kts | 240° |
| 2026-05-03 22:11 | 45.76178 | 9.31880 | 16569 ft | 375 kts | 240° |
| 2026-05-03 22:11 | 45.74916 | 9.28627 | 15989 ft | 371 kts | 240° |
| 2026-05-03 22:12 | 45.73677 | 9.25429 | 15422 ft | 368 kts | 240° |
| 2026-05-03 22:12 | 45.72708 | 9.22937 | 14959 ft | 366 kts | 239° |
| 2026-05-03 22:12 | 45.71460 | 9.19732 | 14361 ft | 362 kts | 239° |
| 2026-05-03 22:12 | 45.70252 | 9.16634 | 13758 ft | 360 kts | 239° |
| 2026-05-03 22:13 | 45.69039 | 9.13524 | 13145 ft | 356 kts | 239° |
| 2026-05-03 22:13 | 45.67835 | 9.10444 | 12564 ft | 353 kts | 239° |
| 2026-05-03 22:13 | 45.66651 | 9.07443 | 11999 ft | 350 kts | 238° |
| 2026-05-03 22:13 | 45.65199 | 9.04689 | 11460 ft | 345 kts | 223° |
| 2026-05-03 22:14 | 45.63305 | 9.02759 | 11310 ft | 326 kts | 206° |
| 2026-05-03 22:14 | 45.61220 | 9.01768 | 11173 ft | 308 kts | 191° |
| 2026-05-03 22:14 | 45.59148 | 9.01399 | 11048 ft | 292 kts | 186° |
| 2026-05-03 22:14 | 45.57169 | 9.01153 | 10914 ft | 278 kts | 186° |
| 2026-05-03 22:15 | 45.55290 | 9.00924 | 10786 ft | 265 kts | 186° |
| 2026-05-03 22:15 | 45.53496 | 9.00701 | 10636 ft | 255 kts | 186° |
| 2026-05-03 22:15 | 45.51734 | 9.00476 | 10516 ft | 252 kts | 186° |
| 2026-05-03 22:15 | 45.49975 | 9.00250 | 10398 ft | 255 kts | 186° |
| 2026-05-03 22:16 | 45.48809 | 9.00099 | 10274 ft | 254 kts | 186° |
| 2026-05-03 22:16 | 45.47053 | 8.99872 | 10011 ft | 253 kts | 186° |
| 2026-05-03 22:16 | 45.45247 | 8.99637 | 9850 ft | 263 kts | 186° |
| 2026-05-03 22:16 | 45.43471 | 8.99407 | 9701 ft | 251 kts | 186° |
| 2026-05-03 22:17 | 45.41760 | 8.99186 | 9352 ft | 245 kts | 186° |
| 2026-05-03 22:17 | 45.40059 | 8.98965 | 8861 ft | 245 kts | 186° |
| 2026-05-03 22:17 | 45.38378 | 8.98748 | 8527 ft | 240 kts | 186° |
| 2026-05-03 22:17 | 45.36712 | 8.98532 | 8257 ft | 240 kts | 185° |
| 2026-05-03 22:18 | 45.35051 | 8.98317 | 7974 ft | 239 kts | 185° |
| 2026-05-03 22:18 | 45.33395 | 8.98103 | 7692 ft | 239 kts | 185° |
| 2026-05-03 22:18 | 45.31744 | 8.97865 | 7415 ft | 239 kts | 188° |
| 2026-05-03 22:18 | 45.30150 | 8.97223 | 7116 ft | 238 kts | 205° |
| 2026-05-03 22:19 | 45.28808 | 8.95886 | 6911 ft | 234 kts | 225° |
| 2026-05-03 22:19 | 45.27898 | 8.94027 | 6697 ft | 228 kts | 244° |
| 2026-05-03 22:19 | 45.27478 | 8.91870 | 6425 ft | 227 kts | 263° |
| 2026-05-03 22:19 | 45.27587 | 8.89641 | 6092 ft | 229 kts | 282° |
| 2026-05-03 22:20 | 45.28213 | 8.87574 | 5729 ft | 229 kts | 301° |
| 2026-05-03 22:20 | 45.29279 | 8.85935 | 5386 ft | 228 kts | 322° |
| 2026-05-03 22:20 | 45.30661 | 8.84873 | 5271 ft | 226 kts | 339° |
| 2026-05-03 22:20 | 45.32142 | 8.84147 | 5151 ft | 225 kts | 342° |
| 2026-05-03 22:21 | 45.33635 | 8.83472 | 5026 ft | 225 kts | 342° |
| 2026-05-03 22:21 | 45.35125 | 8.82794 | 4896 ft | 225 kts | 342° |
| 2026-05-03 22:21 | 45.36610 | 8.82109 | 4782 ft | 221 kts | 342° |
| 2026-05-03 22:21 | 45.38022 | 8.81452 | 4646 ft | 207 kts | 342° |
| 2026-05-03 22:22 | 45.39348 | 8.80832 | 4529 ft | 194 kts | 342° |
| 2026-05-03 22:22 | 45.40619 | 8.80236 | 4434 ft | 192 kts | 342° |
| 2026-05-03 22:22 | 45.41872 | 8.79584 | 4255 ft | 192 kts | 336° |
| 2026-05-03 22:22 | 45.43131 | 8.78972 | 4062 ft | 192 kts | 348° |
| 2026-05-03 22:23 | 45.44435 | 8.78617 | 3911 ft | 188 kts | 348° |
| 2026-05-03 22:23 | 45.45697 | 8.78199 | 3752 ft | 185 kts | 346° |
| 2026-05-03 22:23 | 45.46951 | 8.77802 | 3623 ft | 184 kts | 348° |
| 2026-05-03 22:23 | 45.48205 | 8.77442 | 3410 ft | 183 kts | 349° |
| 2026-05-03 22:24 | 45.49452 | 8.77099 | 3150 ft | 182 kts | 348° |
| 2026-05-03 22:24 | 45.50706 | 8.76764 | 2900 ft | 183 kts | 349° |
| 2026-05-03 22:24 | 45.51918 | 8.76455 | 2630 ft | 171 kts | 348° |
| 2026-05-03 22:24 | 45.53055 | 8.76174 | 2394 ft | 160 kts | 347° |
| 2026-05-03 22:25 | 45.54122 | 8.75887 | 2163 ft | 151 kts | 346° |
| 2026-05-03 22:25 | 45.55114 | 8.75585 | 1971 ft | 141 kts | 345° |
| 2026-05-03 22:25 | 45.56059 | 8.75299 | 1748 ft | 136 kts | 345° |
| 2026-05-03 22:25 | 45.56973 | 8.75026 | 1614 ft | 136 kts | 346° |
| 2026-05-03 22:26 | 45.57906 | 8.74746 | 1482 ft | 135 kts | 345° |
| 2026-05-03 22:26 | 45.58807 | 8.74478 | 1277 ft | 132 kts | 349° |
| 2026-05-03 22:26 | 45.59700 | 8.74255 | 1125 ft | 130 kts | 348° |
| 2026-05-03 22:26 | 45.60591 | 8.74024 | 986 ft | 130 kts | 347° |
| 2026-05-03 22:27 | 45.61472 | 8.73773 | 827 ft | 129 kts | 348° |
| 2026-05-03 22:27 | 45.62345 | 8.73527 | 754 ft | 124 kts | 351° |
| 2026-05-03 22:27 | 45.63115 | 8.73320 | 739 ft | 91 kts | 349° |
| 2026-05-03 22:27 | 45.63557 | 8.73190 | 744 ft | 45 kts | 340° |
| 2026-05-03 22:28 | 45.63775 | 8.72986 | 739 ft | 35 kts | 314° |
| 2026-05-03 22:28 | 45.63874 | 8.72793 | 739 ft | 23 kts | 304° |
| 2026-05-03 22:28 | 45.63945 | 8.72634 | 739 ft | 13 kts | 296° |
| 2026-05-03 22:28 | 45.63946 | 8.72494 | 740 ft | 16 kts | 259° |
| 2026-05-03 22:29 | 45.63924 | 8.72319 | 741 ft | 20 kts | 260° |
| 2026-05-03 22:29 | 45.63911 | 8.72112 | 741 ft | 22 kts | 268° |
| 2026-05-03 22:29 | 45.63899 | 8.71911 | 744 ft | 15 kts | 260° |
| 2026-05-03 22:29 | 45.63823 | 8.71821 | 743 ft | 17 kts | 181° |
| 2026-05-03 22:30 | 45.63697 | 8.71853 | 741 ft | 20 kts | 170° |
| 2026-05-03 22:30 | 45.63551 | 8.71896 | 741 ft | 23 kts | 169° |
| 2026-05-03 22:30 | 45.63387 | 8.71940 | 740 ft | 17 kts | 169° |
| 2026-05-03 22:30 | 45.63311 | 8.71903 | 741 ft | 9 kts | 241° |
| 2026-05-03 22:31 | 45.63296 | 8.71812 | 740 ft | 11 kts | 259° |
| 2026-05-03 22:31 | 45.63277 | 8.71681 | 742 ft | 16 kts | 258° |
| 2026-05-03 22:31 | 45.63261 | 8.71561 | 739 ft | 10 kts | 259° |
| 2026-05-03 22:31 | 45.63242 | 8.71501 | 739 ft | 5 kts | 220° |
| 2026-05-03 22:32 | 45.63199 | 8.71468 | 739 ft | 9 kts | 197° |
| 2026-05-03 22:32 | 45.63172 | 8.71455 | 740 ft | 0 kts | 198° |